Flight Track Log - Related Links

Times and Time Zones

All times are in EST time to prevent confusion due to time zone crossing. See the AAY875 flight status page for this flight to view local times or setup timezone preferences in your user account.

Time Position Orientation Groundspeed Altitude Reporting Facility
EST Latitude Longitude Course Direction KTS MPH feet Rate Location/Type
Sun 02:03:42 PM 44.8203 -68.9042 224° Southwest 185 213 3,000  Level Boston Center
Sun 02:04:45 PM 44.7728 -68.9686 224° Southwest 229 264 4,800 2,468 Climbing Boston Center
Sun 02:05:46 PM 44.7286 -69.0442 231° Southwest 246 283 8,100 2,876 Climbing Boston Center
Sun 02:06:46 PM 44.6836 -69.1128 227° Southwest 239 275 10,600 1,587 Climbing Boston Center
Sun 02:07:47 PM 44.6264 -69.1869 223° Southwest 286 329 11,300 1,686 Climbing Boston Center
Sun 02:08:47 PM 44.5600 -69.2742 223° Southwest 321 369 14,000 2,855 Climbing Boston Center
Sun 02:09:00 PM 44.4438 -69.4306 224° Southwest  Level FlightAware Approximate
Sun 02:09:51 PM 44.5122 -69.3567 231° Southwest 270 311 17,200  Level Boston Center
Sun 02:10:52 PM 44.4594 -69.4328 226° Southwest 269 310 18,700 1,438 Climbing Boston Center
Sun 02:11:52 PM 44.4006 -69.5069 222° Southwest 280 322 20,100 1,686 Climbing Boston Center
Sun 02:12:53 PM 44.3344 -69.6006 225° Southwest 279 321 22,100 1,240 Climbing Boston Center
Sun 02:13:53 PM 44.2764 -69.6822 225° Southwest 293 337 22,600 793 Climbing Boston Center
Sun 02:14:54 PM 44.2172 -69.7692 226° Southwest 305 351 23,700 1,033 Climbing Boston Center
Sun 02:15:55 PM 44.1550 -69.8581 226° Southwest 315 362 24,700 1,091 Climbing Boston Center
Sun 02:16:55 PM 44.0892 -69.9439 223° Southwest 321 369 25,900 774 Climbing Boston Center
Sun 02:17:59 PM 44.0217 -70.0297 222° Southwest 326 375 26,300 432 Climbing Boston Center
Sun 02:19:00 PM 43.9528 -70.1258 225° Southwest 346 398 26,800 689 Climbing Boston Center
Sun 02:20:01 PM 43.8867 -70.2283 228° Southwest 355 409 27,700 885 Climbing Boston Center
Sun 02:21:02 PM 43.8169 -70.3239 225° Southwest 352 405 28,600 1,082 Climbing Boston Center
Sun 02:22:03 PM 43.7475 -70.4164 224° Southwest 346 398 29,900 689 Climbing Boston Center
Sun 02:23:04 PM 43.6800 -70.5036 223° Southwest 334 384 30,000 49 Climbing Boston Center
Sun 02:24:05 PM 43.6108 -70.5914 223° Southwest 334 384 30,000  Level Boston Center
Sun 02:25:05 PM 43.5439 -70.6833 225° Southwest 337 388 30,000  Level Boston Center
Sun 02:26:07 PM 43.4789 -70.7772 226° Southwest 337 388 30,000  Level Boston Center
Sun 02:27:07 PM 43.4081 -70.8739 225° Southwest 342 394 30,000 -49 Level Boston Center
Sun 02:28:10 PM 43.3336 -70.9683 223° Southwest 341 392 29,900 -49 Descending Boston Center
Sun 02:29:10 PM 43.2669 -71.0600 225° Southwest 341 392 29,900  Level Boston Center
Sun 02:30:11 PM 43.1983 -71.1506 224° Southwest 345 397 29,900  Level Boston Center
Sun 02:31:11 PM 43.1297 -71.2414 224° Southwest 343 395 29,900  Level Boston Center
Sun 02:32:15 PM 43.0611 -71.3303 223° Southwest 342 394 29,900  Level Boston Center
Sun 02:33:15 PM 42.9931 -71.4203 224° Southwest 343 395 29,900  Level Boston Center
Sun 02:34:16 PM 42.9258 -71.5106 225° Southwest 341 392 29,900 49 Level Boston Center
Sun 02:35:17 PM 42.8472 -71.6133 224° Southwest 342 394 30,000 49 Climbing Boston Center
Sun 02:36:18 PM 42.7769 -71.7031 223° Southwest 346 398 30,000  Level Boston Center
Sun 02:37:18 PM 42.7083 -71.7933 224° Southwest 344 396 30,000  Level Boston Center
Sun 02:38:20 PM 42.6394 -71.8819 223° Southwest 343 395 30,000  Level Boston Center
Sun 02:39:20 PM 42.5711 -71.9708 224° Southwest 342 394 30,000  Level Boston Center
Sun 02:40:24 PM 42.5011 -72.0581 223° Southwest 343 395 30,000  Level Boston Center
Sun 02:42:25 PM 42.3617 -72.2386 224° Southwest 346 398 30,000  Level Boston Center
Sun 02:43:25 PM 42.2911 -72.3289 223° Southwest 348 400 30,000  Level Boston Center
Sun 02:44:29 PM 42.2200 -72.4183 223° Southwest 348 400 30,000  Level Boston Center
Sun 02:45:29 PM 42.1497 -72.5069 223° Southwest 346 398 30,000  Level Boston Center
Sun 02:46:30 PM 42.0789 -72.5956 223° Southwest 347 399 30,000  Level Boston Center
Sun 02:47:31 PM 41.9933 -72.7011 223° Southwest 347 399 30,000  Level Boston Center
Sun 02:48:32 PM 41.9239 -72.7900 224° Southwest 345 397 30,000  Level Boston Center
Sun 02:49:33 PM 41.8528 -72.8778 223° Southwest 346 398 30,000  Level Boston Center
Sun 02:50:34 PM 41.7831 -72.9644 223° Southwest 343 395 30,000  Level Boston Center
Sun 02:51:35 PM 41.7117 -73.0528 223° Southwest 346 398 30,000  Level Boston Center
Sun 02:52:35 PM 41.6411 -73.1408 223° Southwest 347 399 30,000  Level Boston Center
Sun 02:53:39 PM 41.5708 -73.2286 223° Southwest 346 398 30,000  Level Boston Center
Sun 02:54:39 PM 41.4986 -73.3136 221° Southwest 354 407 30,000  Level Boston Center
Sun 02:55:38 PM 41.4272 -73.4042 224° Southwest 355 409 30,000  Level Boston Center
Sun 02:56:42 PM 41.3417 -73.5097 223° Southwest 352 405 30,000  Level Boston Center
Sun 02:57:42 PM 41.2692 -73.5986 223° Southwest 356 410 30,000  Level Boston Center
Sun 02:58:42 PM 41.2094 -73.7000 232° Southwest 349 402 30,000  Level Boston Center
Sun 02:59:20 PM 41.1778 -73.7619 236° Southwest 355 409 30,000  Level New York Center
Sun 03:00:20 PM 41.1189 -73.8642 233° Southwest 355 409 30,000  Level New York Center
Sun 03:01:20 PM 41.0561 -73.9631 230° Southwest 360 414 30,000  Level New York Center
Sun 03:02:20 PM 40.9950 -74.0644 231° Southwest 360 414 30,000  Level New York Center
Sun 03:03:20 PM 40.9358 -74.1661 232° Southwest 360 414 30,000 -50 Level New York Center
Sun 03:04:20 PM 40.8658 -74.2750 230° Southwest 360 414 29,900 -50 Descending New York Center
Sun 03:05:20 PM 40.8044 -74.3789 232° Southwest 360 414 29,900  Level New York Center
Sun 03:06:20 PM 40.7428 -74.4822 232° Southwest 365 420 29,900  Level New York Center
Sun 03:07:20 PM 40.6814 -74.5803 230° Southwest 365 420 29,900 50 Level New York Center
Sun 03:08:20 PM 40.6197 -74.6836 232° Southwest 365 420 30,000  Climbing New York Center
Sun 03:09:20 PM 40.5558 -74.7836 230° Southwest 365 420 29,900  Descending New York Center
Sun 03:10:20 PM 40.4858 -74.8806 227° Southwest 366 421 30,000  Climbing New York Center
Sun 03:11:20 PM 40.4181 -74.9747 227° Southwest 366 421 29,900  Descending New York Center
Sun 03:12:20 PM 40.3519 -75.0714 228° Southwest 361 415 30,000  Climbing New York Center
Sun 03:13:20 PM 40.2839 -75.1678 227° Southwest 361 415 29,900 -50 Descending New York Center
Sun 03:14:20 PM 40.2156 -75.2667 228° Southwest 361 415 29,900 50 Level New York Center
Sun 03:15:20 PM 40.1472 -75.3628 227° Southwest 361 415 30,000 50 Climbing New York Center
Sun 03:16:20 PM 40.0744 -75.4583 225° Southwest 361 415 30,000  Level New York Center
Sun 03:17:20 PM 40.0061 -75.5514 226° Southwest 361 415 30,000 -50 Level New York Center
Sun 03:18:20 PM 39.9397 -75.6497 229° Southwest 361 415 29,900 -50 Descending New York Center
Sun 03:19:20 PM 39.8750 -75.7481 229° Southwest 361 415 29,900 50 Level New York Center
Sun 03:20:20 PM 39.8103 -75.8489 230° Southwest 367 422 30,000 35 Climbing New York Center
Sun 03:22:12 PM 39.7003 -76.0258 231° Southwest 348 400 30,000  Level Washington Center
Sun 03:23:12 PM 39.6375 -76.1222 230° Southwest 354 407 30,000  Level Washington Center
Sun 03:24:13 PM 39.5725 -76.2214 230° Southwest 359 413 30,000  Level Washington Center
Sun 03:25:11 PM 39.5072 -76.3258 231° Southwest 365 420 30,000  Level Washington Center
Sun 03:26:12 PM 39.4419 -76.4219 229° Southwest 365 420 30,000  Level Washington Center
Sun 03:27:12 PM 39.3767 -76.5258 231° Southwest 365 420 30,000  Level Washington Center
Sun 03:28:13 PM 39.3133 -76.6244 230° Southwest 365 420 30,000  Level Washington Center
Sun 03:29:11 PM 39.2500 -76.7253 231° Southwest 370 426 30,000  Level Washington Center
Sun 03:30:12 PM 39.1864 -76.8233 230° Southwest 370 426 30,000  Level Washington Center
Sun 03:31:13 PM 39.1208 -76.9239 230° Southwest 375 432 30,000  Level Washington Center
Sun 03:32:13 PM 39.0569 -77.0217 230° Southwest 375 432 30,000  Level Washington Center
Sun 03:33:11 PM 38.9744 -77.1217 223° Southwest 375 432 30,000  Level Washington Center
Sun 03:34:11 PM 38.8922 -77.2053 218° Southwest 375 432 30,000  Level Washington Center
Sun 03:35:11 PM 38.8139 -77.2886 220° Southwest 380 437 30,000  Level Washington Center
Sun 03:36:12 PM 38.7333 -77.3772 221° Southwest 380 437 30,000  Level Washington Center
Sun 03:37:12 PM 38.6550 -77.4658 221° Southwest 385 443 30,000  Level Washington Center
Sun 03:38:11 PM 38.5764 -77.5517 220° Southwest 385 443 30,000  Level Washington Center
Sun 03:39:13 PM 38.4936 -77.6394 220° Southwest 385 443 30,000  Level Washington Center
Sun 03:40:13 PM 38.4128 -77.7247 220° Southwest 385 443 30,000  Level Washington Center
Sun 03:41:11 PM 38.3342 -77.8125 221° Southwest 385 443 30,000  Level Washington Center
Sun 03:42:11 PM 38.2533 -77.9000 220° Southwest 385 443 30,000  Level Washington Center
Sun 03:43:12 PM 38.1722 -77.9847 219° Southwest 385 443 30,000  Level Washington Center
Sun 03:44:13 PM 38.0914 -78.0717 220° Southwest 385 443 30,000  Level Washington Center
Sun 03:45:11 PM 38.0103 -78.1561 219° Southwest 385 443 30,000  Level Washington Center
Sun 03:46:11 PM 37.9378 -78.2325 220° Southwest 373 429 30,000  Level Washington Center
Sun 03:47:11 PM 37.8506 -78.3136 216° Southwest 387 445 30,000  Level Washington Center
Sun 03:48:12 PM 37.7672 -78.3922 217° Southwest 393 452 30,000  Level Washington Center
Sun 03:49:13 PM 37.6714 -78.4806 216° Southwest 398 458 30,000  Level Washington Center
Sun 03:50:14 PM 37.5858 -78.5636 218° Southwest 398 458 30,000  Level Washington Center
Sun 03:51:11 PM 37.4983 -78.6442 216° Southwest 398 458 30,000  Level Washington Center
Sun 03:52:12 PM 37.4106 -78.7269 217° Southwest 398 458 30,000  Level Washington Center
Sun 03:53:13 PM 37.3231 -78.8067 216° Southwest 398 458 30,000  Level Washington Center
Sun 03:54:11 PM 37.2439 -78.8792 216° Southwest 398 458 30,000  Level Washington Center
Sun 03:55:11 PM 37.1561 -78.9614 217° Southwest 398 458 30,000  Level Washington Center
Sun 03:56:12 PM 37.0703 -79.0436 217° Southwest 398 458 30,000  Level Washington Center
Sun 03:57:12 PM 36.9803 -79.1253 216° Southwest 398 458 30,000  Level Washington Center
Sun 03:58:14 PM 36.8922 -79.2044 216° Southwest 398 458 30,000  Level Washington Center
Sun 03:59:11 PM 36.7978 -79.2933 217° Southwest 398 458 30,000  Level Washington Center
Sun 04:00:12 PM 36.7078 -79.3744 216° Southwest 398 458 30,000  Level Washington Center
Sun 04:01:12 PM 36.6194 -79.4556 216° Southwest 398 458 30,000  Level Washington Center
Sun 04:03:06 PM 36.4517 -79.6097 216° Southwest 398 458 30,000  Level Atlanta Center
Sun 04:04:06 PM 36.3628 -79.6892 216° Southwest 391 450 30,000  Level Atlanta Center
Sun 04:05:06 PM 36.2717 -79.7664 214° Southwest 396 456 30,000  Level Atlanta Center
Sun 04:06:06 PM 36.1847 -79.8456 216° Southwest 396 456 30,000  Level Atlanta Center
Sun 04:07:06 PM 36.1039 -79.9217 217° Southwest 396 456 30,000  Level Atlanta Center
Sun 04:08:06 PM 36.0106 -79.9983 214° Southwest 396 456 30,000  Level Atlanta Center
Sun 04:09:06 PM 35.9058 -80.0522 203° Southwest 396 456 30,000  Level Atlanta Center
Sun 04:10:06 PM 35.7992 -80.1011 200° South 406 467 30,000  Level Atlanta Center
Sun 04:11:06 PM 35.6819 -80.1553 201° Southwest 411 473 30,000  Level Atlanta Center
Sun 04:12:06 PM 35.5772 -80.2111 203° Southwest 411 473 30,000  Level Atlanta Center
Sun 04:13:06 PM 35.4747 -80.2669 204° Southwest 411 473 30,000  Level Atlanta Center
Sun 04:14:06 PM 35.3636 -80.3231 202° Southwest 416 479 30,000  Level Atlanta Center
Sun 04:15:06 PM 35.2586 -80.3711 200° South 416 479 30,000 150 Level Atlanta Center
Sun 04:16:06 PM 35.1497 -80.4242 202° Southwest 416 479 30,300 609 Climbing Atlanta Center
Sun 04:18:23 PM 34.9181 -80.5431 203° Southwest 412 474 32,000 518 Climbing Jacksonville Center
Sun 04:19:23 PM 34.8125 -80.5917 201° Southwest 412 474 32,000  Level Jacksonville Center
Sun 04:20:23 PM 34.7133 -80.6422 203° Southwest 399 459 32,000  Level Jacksonville Center
Sun 04:21:23 PM 34.6017 -80.6931 201° Southwest 409 471 32,000  Level Jacksonville Center
Sun 04:22:23 PM 34.4983 -80.7461 203° Southwest 418 481 32,000  Level Jacksonville Center
Sun 04:23:23 PM 34.3947 -80.7964 202° Southwest 409 471 32,000  Level Jacksonville Center
Sun 04:24:23 PM 34.2872 -80.8519 203° Southwest 409 471 32,000  Level Jacksonville Center
Sun 04:25:23 PM 34.1878 -80.8994 202° Southwest 403 464 32,000  Level Jacksonville Center
Sun 04:26:23 PM 34.0697 -80.9547 201° Southwest 408 470 32,000  Level Jacksonville Center
Sun 04:27:23 PM 33.9642 -81.0047 201° Southwest 408 470 32,000  Level Jacksonville Center
Sun 04:28:23 PM 33.8606 -81.0544 202° Southwest 413 475 32,000  Level Jacksonville Center
Sun 04:29:23 PM 33.7550 -81.1039 201° Southwest 408 470 32,000  Level Jacksonville Center
Sun 04:30:24 PM 33.6492 -81.1586 203° Southwest 408 470 32,000  Level Jacksonville Center
Sun 04:31:23 PM 33.5456 -81.2131 204° Southwest 413 475 32,000  Level Jacksonville Center
Sun 04:32:23 PM 33.4378 -81.2647 202° Southwest 413 475 32,000  Level Jacksonville Center
Sun 04:33:23 PM 33.3319 -81.3164 202° Southwest 413 475 32,000  Level Jacksonville Center
Sun 04:34:23 PM 33.2261 -81.3656 201° Southwest 413 475 32,000  Level Jacksonville Center
Sun 04:35:23 PM 33.1203 -81.4194 203° Southwest 413 475 32,000  Level Jacksonville Center
Sun 04:36:24 PM 33.0144 -81.4706 202° Southwest 413 475 32,000  Level Jacksonville Center
Sun 04:37:23 PM 32.9086 -81.5217 202° Southwest 413 475 32,000  Level Jacksonville Center
Sun 04:38:23 PM 32.8028 -81.5728 202° Southwest 413 475 32,000  Level Jacksonville Center
Sun 04:39:23 PM 32.6967 -81.6236 202° Southwest 413 475 32,000  Level Jacksonville Center
Sun 04:40:23 PM 32.5928 -81.6769 203° Southwest 413 475 32,000  Level Jacksonville Center
Sun 04:41:23 PM 32.4953 -81.7225 202° Southwest 413 475 32,000  Level Jacksonville Center
Sun 04:42:23 PM 32.3681 -81.7611 194° South 419 482 32,000  Level Jacksonville Center
Sun 04:43:23 PM 32.2514 -81.7822 189° South 432 497 32,000  Level Jacksonville Center
Sun 04:44:23 PM 32.1347 -81.8033 189° South 429 494 32,000  Level Jacksonville Center
Sun 04:45:23 PM 32.0203 -81.8342 193° South 429 494 32,000  Level Jacksonville Center
Sun 04:46:23 PM 31.9139 -81.8597 192° South 429 494 32,000  Level Jacksonville Center
Sun 04:47:23 PM 31.7867 -81.8881 191° South 429 494 32,000  Level Jacksonville Center
Sun 04:48:23 PM 31.6700 -81.9111 190° South 429 494 32,000  Level Jacksonville Center
Sun 04:49:23 PM 31.5636 -81.9344 191° South 429 494 32,000  Level Jacksonville Center
Sun 04:50:23 PM 31.4367 -81.9625 191° South 429 494 32,000  Level Jacksonville Center
Sun 04:51:23 PM 31.3303 -81.9878 191° South 429 494 32,000  Level Jacksonville Center
Sun 04:52:23 PM 31.2156 -82.0133 191° South 429 494 32,000  Level Jacksonville Center
Sun 04:53:23 PM 31.0989 -82.0386 191° South 429 494 32,000  Level Jacksonville Center
Sun 04:54:23 PM 30.9819 -82.0639 190° South 429 494 32,000  Level Jacksonville Center
Sun 04:55:23 PM 30.8653 -82.0892 191° South 429 494 32,000  Level Jacksonville Center
Sun 04:56:23 PM 30.7506 -82.1142 191° South 429 494 32,000  Level Jacksonville Center
Sun 04:57:23 PM 30.6317 -82.1394 190° South 429 494 32,000  Level Jacksonville Center
Sun 04:58:23 PM 30.5150 -82.1572 187° South 429 494 32,000  Level Jacksonville Center
Sun 04:59:23 PM 30.4003 -82.1822 191° South 429 494 32,000  Level Jacksonville Center
Sun 05:00:24 PM 30.2836 -82.2094 191° South 429 494 32,000  Level Jacksonville Center
Sun 05:01:23 PM 30.1667 -82.2342 190° South 429 494 32,000  Level Jacksonville Center
Sun 05:02:24 PM 30.0394 -82.2617 191° South 429 494 32,000  Level Jacksonville Center
Sun 05:03:24 PM 29.9186 -82.2911 192° South 429 494 32,000  Level Jacksonville Center
Sun 05:04:23 PM 29.8039 -82.3158 191° South 429 494 32,000 -950 Level Jacksonville Center
Sun 05:05:24 PM 29.6869 -82.3356 188° South 429 494 30,100 -2,529 Descending Jacksonville Center
Sun 05:06:24 PM 29.5703 -82.3553 188° South 429 494 26,900 -2,622 Descending Jacksonville Center
Sun 05:07:23 PM 29.4469 -82.3464 176° South 429 494 24,900 -2,067 Descending Jacksonville Center
Sun 05:08:23 PM 29.3258 -82.3306 173° South 436 502 22,800 -2,033 Descending Jacksonville Center
Sun 05:09:24 PM 29.2067 -82.3122 172° South 441 507 20,800 -2,033 Descending Jacksonville Center
Sun 05:10:24 PM 29.0897 -82.2986 174° South 441 507 18,700 -1,866 Descending Jacksonville Center
Sun 05:11:23 PM 28.9769 -82.2872 175° South 423 487 17,100 -1,700 Descending Jacksonville Center
Sun 05:12:24 PM 28.8725 -82.2786 176° South 411 473 15,300 -1,750 Descending Jacksonville Center
Sun 05:13:23 PM 28.7786 -82.2672 174° South 379 436 13,600 -961 Descending Jacksonville Center
Sun 05:15:50 PM 28.5833 -82.2667 180° South 277 319 12,000 -899 Descending Tampa TRACON
Sun 05:16:50 PM 28.5167 -82.3000 204° Southwest 291 335 10,500 -1,105 Descending Tampa TRACON
Sun 05:17:44 PM 28.5000 -82.3833 257° West 292 336 9,900 -300 Descending Tampa TRACON
Sun 05:18:50 PM 28.4833 -82.4833 259° West 287 330 9,900 -227 Level Tampa TRACON
Sun 05:19:56 PM 28.4333 -82.5500 230° Southwest 284 327 9,400 -1,000 Descending Tampa TRACON
Sun 05:20:44 PM 28.4000 -82.6167 240° Southwest 288 331 8,000 -1,222 Descending Tampa TRACON
Sun 05:21:44 PM 28.3167 -82.6333 190° South 269 310 7,200 -1,000 Descending Tampa TRACON
Sun 05:22:44 PM 28.2500 -82.6500 192° South 264 304 6,000 -1,300 Descending Tampa TRACON
Sun 05:23:44 PM 28.1833 -82.6500 180° South 261 300 4,600 -1,400 Descending Tampa TRACON
Sun 05:24:44 PM 28.1000 -82.6667 190° South 262 302 3,200 -1,368 Descending Tampa TRACON
Sun 05:25:38 PM 28.0333 -82.6667 180° South 255 293 2,000 -957 Descending Tampa TRACON
Sun 05:27:02 PM 27.9667 -82.6833 192° South 145 167 1,000 -750 Descending Tampa TRACON
Sun 05:27:38 PM 27.9500 -82.7000 221° Southwest 125 144 500 -833 Descending Tampa TRACON
Sun 05:29:00 PM 27.9100 -82.6875 165° South  Level Estimated
Sun 05:36:00 PM 27.9100 -82.6875 260° West  Level Estimated
Sun 05:37:00 PM 27.9100 -82.6875 260° West  Level Estimated

Login

Don't have an account? Register now (free) for customized features, flight alerts, and more!